createdAt,value
2019-05-07T00:01:52.644Z,102060.30
2019-05-07T00:04:22.560Z,102056.07
2019-05-07T00:06:53.857Z,102058.75
2019-05-07T00:09:23.966Z,102054.00
2019-05-07T00:11:54.103Z,102064.69
2019-05-07T00:14:25.837Z,102050.22
2019-05-07T00:16:55.940Z,102051.80
2019-05-07T00:19:26.033Z,102051.09
2019-05-07T00:21:56.132Z,102049.31
2019-05-07T00:24:26.227Z,102043.90
2019-05-07T00:26:56.390Z,102046.27
2019-05-07T00:29:26.590Z,102049.69
2019-05-07T00:31:56.698Z,102050.86
2019-05-07T00:34:32.948Z,102051.69
2019-05-07T00:37:13.117Z,102052.77
2019-05-07T00:40:02.743Z,102050.25
2019-05-07T00:42:50.595Z,102048.23
2019-05-07T00:45:27.000Z,102056.72
2019-05-07T00:47:57.167Z,102043.73
2019-05-07T00:50:33.120Z,102046.23
2019-05-07T00:53:03.381Z,102054.00
2019-05-07T00:55:33.458Z,102047.41
2019-05-07T00:58:03.559Z,102044.40
2019-05-07T01:00:33.630Z,102044.27
2019-05-07T01:03:05.298Z,102049.95
2019-05-07T01:05:35.366Z,102050.66
2019-05-07T01:08:05.527Z,102048.80
2019-05-07T01:10:35.612Z,102050.87
2019-05-07T01:13:05.714Z,102047.34
2019-05-07T01:15:35.870Z,102043.94
2019-05-07T01:18:05.984Z,102047.81
2019-05-07T01:20:36.050Z,102051.20
2019-05-07T01:23:06.177Z,102049.84
2019-05-07T01:25:36.100Z,102048.55
2019-05-07T01:28:06.226Z,102049.02
2019-05-07T01:30:36.310Z,102043.53
2019-05-07T01:33:16.751Z,102041.70
2019-05-07T01:36:05.936Z,102046.00
2019-05-07T01:38:36.103Z,102043.39
2019-05-07T01:41:06.244Z,102048.22
2019-05-07T01:43:36.386Z,102049.45
2019-05-07T01:46:06.558Z,102046.00
2019-05-07T01:48:36.718Z,102034.80
2019-05-07T01:51:06.860Z,102046.69
2019-05-07T01:53:37.037Z,102041.46
2019-05-07T01:56:07.279Z,102035.62
2019-05-07T01:58:37.394Z,102035.97
2019-05-07T02:01:07.534Z,102039.71
2019-05-07T02:03:52.801Z,102034.21
2019-05-07T02:06:32.777Z,102031.19
2019-05-07T02:09:12.899Z,102030.77
2019-05-07T02:11:44.836Z,102029.79
2019-05-07T02:14:14.952Z,102027.65
2019-05-07T02:16:45.077Z,102025.58
2019-05-07T02:19:15.255Z,102025.23
2019-05-07T02:21:45.440Z,102026.28
2019-05-07T02:24:15.581Z,102025.12
2019-05-07T02:26:45.743Z,102024.92
2019-05-07T02:29:15.896Z,102017.17
2019-05-07T02:31:47.088Z,102011.14
2019-05-07T02:34:17.250Z,102007.75
2019-05-07T02:36:47.374Z,102010.95
2019-05-07T02:39:26.595Z,102015.52
2019-05-07T02:41:56.701Z,102016.45
2019-05-07T02:44:26.789Z,102014.45
2019-05-07T02:47:18.009Z,102010.72
2019-05-07T02:49:53.831Z,102007.48
2019-05-07T02:52:44.002Z,102002.93
2019-05-07T02:55:26.039Z,102001.16
2019-05-07T02:57:56.138Z,102000.64
2019-05-07T03:00:26.870Z,102001.89
2019-05-07T03:02:56.982Z,101998.36
2019-05-07T03:05:27.042Z,101994.95
2019-05-07T03:07:57.222Z,102005.94
2019-05-07T03:10:27.397Z,101997.30
2019-05-07T03:12:58.376Z,101999.19
2019-05-07T03:15:32.850Z,102006.91
2019-05-07T03:18:03.412Z,101999.94
2019-05-07T03:21:04.743Z,102003.19
2019-05-07T03:23:42.931Z,101998.28
2019-05-07T03:26:24.649Z,102002.96
2019-05-07T03:28:56.744Z,102003.22
2019-05-07T03:31:36.453Z,102005.33
2019-05-07T03:34:16.194Z,102001.82
2019-05-07T03:36:49.269Z,101998.11
2019-05-07T03:39:19.549Z,101993.08
2019-05-07T03:41:49.647Z,101990.42
2019-05-07T03:44:44.928Z,101992.78
2019-05-07T03:47:43.909Z,101992.54
2019-05-07T03:50:15.059Z,101990.82
2019-05-07T03:52:46.599Z,101994.85
2019-05-07T03:55:16.703Z,101989.78
2019-05-07T03:57:46.895Z,101990.97
2019-05-07T04:00:17.433Z,101994.64
2019-05-07T04:02:47.532Z,101996.72
2019-05-07T04:05:17.641Z,101995.07
2019-05-07T04:07:47.756Z,101989.81
2019-05-07T04:10:17.877Z,101988.06
2019-05-07T04:12:48.015Z,101980.34
2019-05-07T04:15:19.521Z,101987.88
2019-05-07T04:17:50.055Z,101983.85
2019-05-07T04:20:20.236Z,101983.05
2019-05-07T04:22:53.313Z,101981.59
2019-05-07T04:25:37.964Z,101975.63
2019-05-07T04:28:14.217Z,101977.73
2019-05-07T04:30:44.333Z,101974.64
2019-05-07T04:33:16.236Z,101973.19
2019-05-07T04:36:14.465Z,101969.83
2019-05-07T04:38:44.698Z,101972.73
2019-05-07T04:41:14.863Z,101975.91
2019-05-07T04:43:44.995Z,101972.27
2019-05-07T04:46:15.150Z,101969.77
2019-05-07T04:48:45.279Z,101963.34
2019-05-07T04:51:18.453Z,101968.44
2019-05-07T04:53:48.649Z,101965.50
2019-05-07T04:56:19.890Z,101968.21
2019-05-07T04:58:52.830Z,101966.75
2019-05-07T05:01:23.757Z,101970.02
2019-05-07T05:03:54.317Z,101966.09
2019-05-07T05:06:24.523Z,101963.91
2019-05-07T05:08:56.211Z,101958.08
2019-05-07T05:11:28.838Z,101963.91
2019-05-07T05:13:58.961Z,101960.24
2019-05-07T05:16:29.212Z,101967.42
2019-05-07T05:18:59.388Z,101963.45
2019-05-07T05:21:38.652Z,101960.56
2019-05-07T05:24:12.631Z,101965.89
2019-05-07T05:26:42.913Z,101967.67
2019-05-07T05:29:14.263Z,101968.80
2019-05-07T05:31:44.462Z,101961.33
2019-05-07T05:34:14.603Z,101967.73
2019-05-07T05:36:44.765Z,101961.36
2019-05-07T05:39:15.058Z,101961.38
2019-05-07T05:41:46.913Z,101955.70
2019-05-07T05:44:22.895Z,101960.00
2019-05-07T05:46:53.158Z,101954.47
2019-05-07T05:49:23.135Z,101953.56
2019-05-07T05:52:02.006Z,101949.85
2019-05-07T05:54:39.164Z,101945.06
2019-05-07T05:57:23.131Z,101951.35
2019-05-07T06:00:15.280Z,101951.02
2019-05-07T06:03:03.511Z,101949.49
2019-05-07T06:05:56.496Z,101947.70
2019-05-07T06:08:54.840Z,101950.37
2019-05-07T06:11:44.248Z,101948.12
2019-05-07T06:14:22.082Z,101942.42
2019-05-07T06:17:04.058Z,101950.17
2019-05-07T06:19:39.472Z,101943.52
2019-05-07T06:22:22.407Z,101945.59
2019-05-07T06:24:58.553Z,101946.88
2019-05-07T06:27:28.795Z,101949.87
2019-05-07T06:29:58.981Z,101944.30
2019-05-07T06:32:29.184Z,101947.99
2019-05-07T06:34:59.338Z,101951.41
2019-05-07T06:37:32.022Z,101950.59
2019-05-07T06:40:12.793Z,101949.20
2019-05-07T06:43:03.168Z,101951.05
2019-05-07T06:45:37.530Z,101956.38
2019-05-07T06:48:07.656Z,101949.08
2019-05-07T06:50:37.854Z,101945.18
2019-05-07T06:53:08.083Z,101942.03
2019-05-07T06:55:38.199Z,101944.39
2019-05-07T06:58:12.114Z,101944.87
2019-05-07T07:00:54.389Z,101951.34
2019-05-07T07:03:34.335Z,101949.63
2019-05-07T07:06:24.135Z,101950.11
2019-05-07T07:09:03.517Z,101946.48
2019-05-07T07:11:44.257Z,101948.50
2019-05-07T07:14:15.410Z,101947.64
2019-05-07T07:16:45.624Z,101947.13
2019-05-07T07:19:15.803Z,101945.83
2019-05-07T07:21:47.148Z,101942.69
2019-05-07T07:24:17.330Z,101948.50
2019-05-07T07:26:47.481Z,101938.86
2019-05-07T07:29:19.537Z,101936.38
2019-05-07T07:31:58.652Z,101934.35
2019-05-07T07:34:33.303Z,101932.00
2019-05-07T07:37:12.549Z,101937.19
2019-05-07T07:39:40.366Z,101942.77
2019-05-07T07:42:12.407Z,101934.66
2019-05-07T07:44:42.670Z,101925.91
2019-05-07T07:47:13.071Z,101928.88
2019-05-07T07:49:43.291Z,101930.53
2019-05-07T07:52:13.447Z,101921.37
2019-05-07T07:54:43.665Z,101919.34
2019-05-07T07:57:32.493Z,101913.64
2019-05-07T08:00:23.363Z,101915.41
2019-05-07T08:03:02.134Z,101912.41
2019-05-07T08:05:32.580Z,101908.75
2019-05-07T08:08:02.816Z,101912.53
2019-05-07T08:10:33.029Z,101905.19
2019-05-07T08:13:03.371Z,101907.02
2019-05-07T08:15:33.504Z,101903.77
2019-05-07T08:18:03.800Z,101904.94
2019-05-07T08:20:33.901Z,101897.44
2019-05-07T08:23:05.552Z,101896.40
2019-05-07T08:25:47.761Z,101900.31
2019-05-07T08:28:19.181Z,101892.53
2019-05-07T08:30:56.439Z,101889.41
2019-05-07T08:33:32.270Z,101883.77
2019-05-07T08:36:14.796Z,101887.06
2019-05-07T08:38:52.998Z,101881.91
2019-05-07T08:41:25.186Z,101884.05
2019-05-07T08:44:09.104Z,101882.91
2019-05-07T08:46:52.129Z,101873.13
2019-05-07T08:49:35.683Z,101877.69
2019-05-07T08:52:03.564Z,101880.72
2019-05-07T08:54:33.674Z,101875.40
2019-05-07T08:57:03.836Z,101872.48
2019-05-07T08:59:35.322Z,101870.34
2019-05-07T09:02:07.197Z,101869.41
2019-05-07T09:04:37.362Z,101868.05
2019-05-07T09:07:07.520Z,101867.08
2019-05-07T09:09:37.719Z,101868.13
2019-05-07T09:12:07.890Z,101866.66
2019-05-07T09:14:38.063Z,101863.84
2019-05-07T09:17:08.252Z,101856.00
2019-05-07T09:19:50.032Z,101851.49
2019-05-07T09:22:12.525Z,101854.14
2019-05-07T09:24:42.594Z,101849.34
2019-05-07T09:27:17.943Z,101848.78
2019-05-07T09:29:54.799Z,101844.70
2019-05-07T09:32:37.000Z,101845.23
2019-05-07T09:35:09.878Z,101841.50
2019-05-07T09:37:41.959Z,101842.02
2019-05-07T09:40:12.690Z,101826.31
2019-05-07T09:42:44.411Z,101827.40
2019-05-07T09:45:15.562Z,101820.63
2019-05-07T09:47:47.355Z,101824.70
2019-05-07T09:50:17.870Z,101823.98
2019-05-07T09:52:48.079Z,101817.61
2019-05-07T09:55:19.897Z,101821.16
2019-05-07T09:57:50.059Z,101826.23
2019-05-07T10:00:22.616Z,101816.39
2019-05-07T10:02:52.994Z,101809.14
2019-05-07T10:05:23.387Z,101808.62
2019-05-07T10:07:53.581Z,101807.22
2019-05-07T10:10:23.836Z,101804.02
2019-05-07T10:13:01.826Z,101797.16
2019-05-07T10:15:33.153Z,101797.98
2019-05-07T10:18:09.731Z,101798.66
2019-05-07T10:20:42.130Z,101798.25
2019-05-07T10:23:22.827Z,101789.89
2019-05-07T10:25:54.417Z,101785.57
2019-05-07T10:28:24.913Z,101788.28
2019-05-07T10:30:56.608Z,101791.27
2019-05-07T10:33:26.730Z,101786.39
2019-05-07T10:35:57.765Z,101786.15
2019-05-07T10:38:27.914Z,101780.88
2019-05-07T10:40:58.180Z,101787.34
2019-05-07T10:43:28.557Z,101784.08
2019-05-07T10:46:12.941Z,101777.38
2019-05-07T10:49:04.910Z,101778.06
2019-05-07T10:51:35.208Z,101772.77
2019-05-07T10:54:05.442Z,101775.82
2019-05-07T10:56:52.478Z,101781.70
2019-05-07T10:59:24.070Z,101777.83
2019-05-07T11:02:02.338Z,101778.20
2019-05-07T11:04:40.144Z,101775.08
2019-05-07T11:07:04.516Z,101774.70
2019-05-07T11:09:34.670Z,101772.88
2019-05-07T11:12:04.907Z,101761.57
2019-05-07T11:14:35.023Z,101763.00
2019-05-07T11:17:24.139Z,101757.01
2019-05-07T11:19:56.283Z,101755.03
2019-05-07T11:22:26.385Z,101765.71
2019-05-07T11:24:56.503Z,101748.91
2019-05-07T11:27:26.617Z,101746.08
2019-05-07T11:29:56.745Z,101748.27
2019-05-07T11:32:27.927Z,101745.72
2019-05-07T11:34:58.185Z,101749.89
2019-05-07T11:37:28.296Z,101744.83
2019-05-07T11:39:58.423Z,101742.31
2019-05-07T11:43:05.942Z,101743.80
2019-05-07T11:45:54.002Z,101743.67
2019-05-07T11:48:23.513Z,101734.59
2019-05-07T11:51:15.174Z,101733.11
2019-05-07T11:54:02.225Z,101722.03
2019-05-07T11:56:32.941Z,101724.72
2019-05-07T11:59:03.126Z,101723.66
2019-05-07T12:01:43.569Z,101726.38
2019-05-07T12:04:05.769Z,101724.84
2019-05-07T12:06:35.921Z,101715.99
2019-05-07T12:09:08.139Z,101704.48
2019-05-07T12:11:38.369Z,101700.78
2019-05-07T12:14:08.605Z,101707.85
2019-05-07T12:16:38.725Z,101705.31
2019-05-07T12:19:08.851Z,101703.74
2019-05-07T12:21:38.971Z,101702.09
2019-05-07T12:24:09.078Z,101692.00
2019-05-07T12:26:41.742Z,101686.73
2019-05-07T12:29:12.018Z,101690.80
2019-05-07T12:32:02.493Z,101681.91
2019-05-07T12:34:36.231Z,101675.06
2019-05-07T12:37:06.413Z,101676.52
2019-05-07T12:39:36.534Z,101674.37
2019-05-07T12:42:06.675Z,101675.09
2019-05-07T12:44:36.899Z,101670.34
2019-05-07T12:47:07.134Z,101670.11
2019-05-07T12:49:37.269Z,101663.60
2019-05-07T12:52:32.023Z,101659.51
2019-05-07T12:55:14.073Z,101660.03
2019-05-07T12:57:44.222Z,101651.73
2019-05-07T13:00:32.388Z,101661.42
2019-05-07T13:03:17.150Z,101661.02
2019-05-07T13:05:47.249Z,101658.45
2019-05-07T13:08:17.399Z,101653.41
2019-05-07T13:10:48.489Z,101655.72
2019-05-07T13:13:18.679Z,101654.95
2019-05-07T13:15:48.786Z,101650.69
2019-05-07T13:18:19.017Z,101648.62
2019-05-07T13:20:49.193Z,101652.62
2019-05-07T13:23:19.338Z,101645.98
2019-05-07T13:25:49.456Z,101642.65
2019-05-07T13:28:19.583Z,101638.19
2019-05-07T13:30:49.777Z,101638.42
2019-05-07T13:33:22.837Z,101632.17
2019-05-07T13:35:53.125Z,101623.72
2019-05-07T13:38:38.606Z,101622.59
2019-05-07T13:41:27.676Z,101625.64
2019-05-07T13:44:13.673Z,101622.72
2019-05-07T13:46:44.966Z,101622.27
2019-05-07T13:49:15.327Z,101613.47
2019-05-07T13:51:45.898Z,101618.47
2019-05-07T13:54:16.011Z,101619.23
2019-05-07T13:56:46.201Z,101614.58
2019-05-07T13:59:16.346Z,101612.53
2019-05-07T14:02:05.718Z,101608.00
2019-05-07T14:04:36.052Z,101603.80
2019-05-07T14:07:06.169Z,101602.95
2019-05-07T14:09:36.417Z,101597.39
2019-05-07T14:12:06.548Z,101591.42
2019-05-07T14:14:37.006Z,101602.22
2019-05-07T14:17:07.226Z,101583.35
2019-05-07T14:19:37.366Z,101586.81
2019-05-07T14:22:15.237Z,101578.72
2019-05-07T14:24:39.313Z,101586.28
2019-05-07T14:27:09.454Z,101574.86
2019-05-07T14:29:39.640Z,101577.92
2019-05-07T14:32:31.651Z,101578.19
2019-05-07T14:35:14.902Z,101572.27
2019-05-07T14:37:52.378Z,101569.45
2019-05-07T14:40:25.366Z,101562.77
2019-05-07T14:43:03.573Z,101572.95
2019-05-07T14:45:33.839Z,101563.27
2019-05-07T14:48:03.975Z,101567.72
2019-05-07T14:50:34.186Z,101562.69
2019-05-07T14:53:04.479Z,101552.42
2019-05-07T14:55:34.644Z,101551.84
2019-05-07T14:58:04.928Z,101556.12
2019-05-07T15:00:35.469Z,101559.53
2019-05-07T15:03:05.972Z,101551.21
2019-05-07T15:05:36.212Z,101546.83
2019-05-07T15:08:11.079Z,101555.09
2019-05-07T15:10:41.913Z,101549.89
2019-05-07T15:13:12.771Z,101543.07
2019-05-07T15:15:43.058Z,101540.97
2019-05-07T15:18:24.172Z,101533.13
2019-05-07T15:20:54.441Z,101532.59
2019-05-07T15:23:31.994Z,101532.97
2019-05-07T15:26:04.724Z,101534.81
2019-05-07T15:28:36.494Z,101517.12
2019-05-07T15:31:18.644Z,101529.50
2019-05-07T15:33:49.048Z,101523.91
2019-05-07T15:36:19.396Z,101521.58
2019-05-07T15:38:49.728Z,101521.14
2019-05-07T15:41:19.902Z,101508.34
2019-05-07T15:43:52.033Z,101504.22
2019-05-07T15:46:22.703Z,101510.31
2019-05-07T15:48:53.585Z,101505.02
2019-05-07T15:51:24.667Z,101500.43
2019-05-07T15:53:56.743Z,101500.59
2019-05-07T15:56:26.947Z,101499.94
2019-05-07T15:58:57.059Z,101501.56
2019-05-07T16:01:27.187Z,101502.07
2019-05-07T16:03:58.481Z,101499.02
2019-05-07T16:06:32.201Z,101501.50
2019-05-07T16:09:05.152Z,101492.14
2019-05-07T16:11:35.336Z,101486.53
2019-05-07T16:14:16.071Z,101483.91
2019-05-07T16:16:47.562Z,101477.13
2019-05-07T16:19:22.981Z,101482.40
2019-05-07T16:21:53.085Z,101482.66
2019-05-07T16:24:23.203Z,101474.34
2019-05-07T16:26:53.362Z,101477.01
2019-05-07T16:29:23.604Z,101468.70
2019-05-07T16:31:53.746Z,101467.06
2019-05-07T16:34:25.458Z,101460.34
2019-05-07T16:36:55.591Z,101458.34
2019-05-07T16:39:27.320Z,101463.02
2019-05-07T16:41:57.509Z,101459.61
2019-05-07T16:44:28.063Z,101451.20
2019-05-07T16:46:59.753Z,101454.13
2019-05-07T16:49:31.796Z,101453.55
2019-05-07T16:52:01.941Z,101455.63
2019-05-07T16:54:32.106Z,101447.11
2019-05-07T16:57:33.677Z,101445.80
2019-05-07T17:00:04.967Z,101442.94
2019-05-07T17:02:41.712Z,101441.50
2019-05-07T17:05:13.519Z,101447.59
2019-05-07T17:07:52.205Z,101445.38
2019-05-07T17:10:22.477Z,101445.53
2019-05-07T17:12:52.684Z,101439.06
2019-05-07T17:15:22.981Z,101441.41
2019-05-07T17:17:59.190Z,101440.84
2019-05-07T17:20:29.439Z,101438.20
2019-05-07T17:22:59.530Z,101438.06
2019-05-07T17:25:38.649Z,101430.01
2019-05-07T17:28:09.066Z,101420.90
2019-05-07T17:30:42.157Z,101427.78
2019-05-07T17:33:12.808Z,101419.87
2019-05-07T17:35:45.865Z,101412.22
2019-05-07T17:38:15.050Z,101419.44
2019-05-07T17:40:45.181Z,101422.94
2019-05-07T17:43:15.268Z,101421.06
2019-05-07T17:45:45.438Z,101419.63
2019-05-07T17:48:15.658Z,101414.84
2019-05-07T17:51:07.631Z,101411.84
2019-05-07T17:53:37.881Z,101413.59
2019-05-07T17:56:08.025Z,101405.02
2019-05-07T17:58:38.213Z,101406.14
2019-05-07T18:01:23.348Z,101402.52
2019-05-07T18:03:53.657Z,101395.72
2019-05-07T18:06:23.849Z,101393.97
2019-05-07T18:08:54.145Z,101393.44
2019-05-07T18:11:24.449Z,101390.63
2019-05-07T18:13:54.729Z,101396.19
2019-05-07T18:16:33.371Z,101397.55
2019-05-07T18:19:05.261Z,101394.52
2019-05-07T18:21:38.489Z,101393.89
2019-05-07T18:24:16.428Z,101388.88
2019-05-07T18:26:43.637Z,101397.34
2019-05-07T18:29:16.537Z,101385.70
2019-05-07T18:31:50.211Z,101393.09
2019-05-07T18:34:21.410Z,101392.52
2019-05-07T18:36:53.087Z,101386.78
2019-05-07T18:39:23.492Z,101384.92
2019-05-07T18:41:53.791Z,101384.14
2019-05-07T18:44:23.937Z,101386.34
2019-05-07T18:46:54.015Z,101393.44
2019-05-07T18:49:24.217Z,101388.78
2019-05-07T18:51:54.401Z,101386.33
2019-05-07T18:54:30.811Z,101389.30
2019-05-07T18:56:57.703Z,101388.95
2019-05-07T18:59:31.666Z,101388.64
2019-05-07T19:02:02.282Z,101386.45
2019-05-07T19:04:32.951Z,101386.59
2019-05-07T19:07:04.081Z,101387.28
2019-05-07T19:09:34.226Z,101387.73
2019-05-07T19:12:05.185Z,101386.36
2019-05-07T19:14:35.309Z,101384.98
2019-05-07T19:17:05.382Z,101386.84
2019-05-07T19:19:35.713Z,101390.83
2019-05-07T19:22:05.922Z,101389.89
2019-05-07T19:24:47.705Z,101382.45
2019-05-07T19:27:13.209Z,101384.95
2019-05-07T19:29:45.691Z,101381.04
2019-05-07T19:32:15.360Z,101386.41
2019-05-07T19:34:45.639Z,101381.15
2019-05-07T19:37:15.749Z,101383.52
2019-05-07T19:39:49.110Z,101384.44
2019-05-07T19:42:19.385Z,101386.27
2019-05-07T19:44:52.512Z,101386.30
2019-05-07T19:47:23.427Z,101384.28
2019-05-07T19:49:54.186Z,101381.94
2019-05-07T19:52:24.643Z,101380.77
2019-05-07T19:55:01.404Z,101381.16
2019-05-07T19:57:44.673Z,101382.37
2019-05-07T20:00:15.735Z,101384.95
2019-05-07T20:02:52.704Z,101377.22
2019-05-07T20:05:23.432Z,101379.33
2019-05-07T20:07:58.674Z,101368.39
2019-05-07T20:10:37.497Z,101363.55
2019-05-07T20:13:07.619Z,101356.83
2019-05-07T20:15:39.540Z,101360.53
2019-05-07T20:18:09.661Z,101353.22
2019-05-07T20:20:41.941Z,101350.58
2019-05-07T20:23:12.156Z,101347.84
2019-05-07T20:25:42.261Z,101343.73
2019-05-07T20:28:12.878Z,101334.11
2019-05-07T20:30:43.219Z,101335.11
2019-05-07T20:33:13.496Z,101327.92
2019-05-07T20:35:43.863Z,101335.15
2019-05-07T20:38:15.100Z,101326.66
2019-05-07T20:40:45.353Z,101321.66
2019-05-07T20:43:15.516Z,101317.88
2019-05-07T20:45:45.624Z,101311.65
2019-05-07T20:48:15.779Z,101311.62
2019-05-07T20:50:46.068Z,101306.48
2019-05-07T20:53:21.830Z,101307.02
2019-05-07T20:55:57.628Z,101306.78
2019-05-07T20:58:27.847Z,101299.69
2019-05-07T21:00:58.051Z,101306.45
2019-05-07T21:03:28.233Z,101306.45
2019-05-07T21:05:58.335Z,101299.23
2019-05-07T21:08:28.587Z,101299.42
2019-05-07T21:10:58.754Z,101288.08
2019-05-07T21:13:32.438Z,101288.08
2019-05-07T21:16:02.698Z,101288.44
2019-05-07T21:18:32.901Z,101289.56
2019-05-07T21:21:02.950Z,101286.52
2019-05-07T21:23:33.054Z,101285.14
2019-05-07T21:26:03.167Z,101283.18
2019-05-07T21:28:33.307Z,101290.57
2019-05-07T21:31:03.493Z,101281.99
2019-05-07T21:33:33.638Z,101278.25
2019-05-07T21:36:03.722Z,101276.02
2019-05-07T21:38:33.883Z,101276.12
2019-05-07T21:41:05.072Z,101269.33
2019-05-07T21:43:35.192Z,101264.88
2019-05-07T21:46:05.305Z,101263.11
2019-05-07T21:48:35.424Z,101256.77
2019-05-07T21:51:05.521Z,101259.61
2019-05-07T21:53:42.904Z,101256.66
2019-05-07T21:56:29.974Z,101248.20
2019-05-07T21:59:05.260Z,101240.14
2019-05-07T22:02:02.252Z,101236.04
2019-05-07T22:04:32.743Z,101235.27
2019-05-07T22:07:03.102Z,101232.20
2019-05-07T22:09:33.185Z,101225.34
2019-05-07T22:12:03.814Z,101217.66
2019-05-07T22:14:34.119Z,101209.23
2019-05-07T22:17:04.217Z,101202.28
2019-05-07T22:19:34.333Z,101206.85
2019-05-07T22:22:04.393Z,101209.63
2019-05-07T22:24:34.527Z,101202.73
2019-05-07T22:27:04.623Z,101190.74
2019-05-07T22:29:34.961Z,101196.06
2019-05-07T22:32:16.697Z,101190.21
2019-05-07T22:35:08.883Z,101177.97
2019-05-07T22:37:40.638Z,101180.45
2019-05-07T22:40:13.016Z,101183.00
2019-05-07T22:42:44.809Z,101175.56
2019-05-07T22:45:16.560Z,101180.56
2019-05-07T22:47:46.908Z,101166.95
2019-05-07T22:50:17.125Z,101162.73
2019-05-07T22:52:47.373Z,101160.26
2019-05-07T22:55:17.600Z,101157.06
2019-05-07T22:58:07.817Z,101157.52
2019-05-07T23:00:44.219Z,101148.34
2019-05-07T23:03:14.406Z,101143.19
2019-05-07T23:05:44.878Z,101137.47
2019-05-07T23:08:15.371Z,101137.06
2019-05-07T23:10:45.589Z,101137.75
2019-05-07T23:13:15.758Z,101138.64
2019-05-07T23:15:45.899Z,101136.30
2019-05-07T23:18:17.153Z,101130.15
2019-05-07T23:20:47.297Z,101123.69
2019-05-07T23:23:17.411Z,101119.48
2019-05-07T23:25:47.450Z,101115.00
2019-05-07T23:28:17.600Z,101107.67
2019-05-07T23:30:47.656Z,101109.97
2019-05-07T23:33:17.797Z,101105.90
2019-05-07T23:35:47.893Z,101101.95
2019-05-07T23:38:18.020Z,101103.08
2019-05-07T23:41:16.139Z,101093.27
2019-05-07T23:44:05.440Z,101090.06
2019-05-07T23:46:35.616Z,101085.94
2019-05-07T23:49:05.804Z,101084.80
2019-05-07T23:51:35.988Z,101085.38
2019-05-07T23:54:06.146Z,101089.25
2019-05-07T23:56:36.330Z,101089.20
2019-05-07T23:59:06.546Z,101088.17
